createdAt,value
2023-03-20T00:00:01.075Z,0.00
2023-03-20T00:01:01.279Z,0.00
2023-03-20T00:02:01.050Z,0.00
2023-03-20T00:03:01.012Z,0.00
2023-03-20T00:04:01.127Z,0.00
2023-03-20T00:05:01.274Z,0.00
2023-03-20T00:06:00.986Z,0.00
2023-03-20T00:07:00.962Z,0.00
2023-03-20T00:08:00.975Z,0.00
2023-03-20T00:09:07.235Z,0.00
2023-03-20T00:10:00.935Z,0.00
2023-03-20T00:11:00.923Z,0.00
2023-03-20T00:12:00.908Z,0.00
2023-03-20T00:13:00.910Z,0.00
2023-03-20T00:14:00.900Z,0.00
2023-03-20T00:15:00.884Z,0.00
2023-03-20T00:16:00.947Z,0.00
2023-03-20T00:17:01.013Z,0.00
2023-03-20T00:18:00.853Z,0.00
2023-03-20T00:19:00.830Z,0.00
2023-03-20T00:20:00.842Z,0.00
2023-03-20T00:21:00.816Z,0.00
2023-03-20T00:22:00.837Z,0.00
2023-03-20T00:23:00.794Z,0.00
2023-03-20T00:24:00.801Z,0.00
2023-03-20T00:25:00.794Z,0.00
2023-03-20T00:26:00.759Z,0.00
2023-03-20T00:27:00.778Z,0.00
2023-03-20T00:28:00.737Z,0.00
2023-03-20T00:29:00.732Z,0.00
2023-03-20T00:30:00.921Z,0.00
2023-03-20T00:31:00.794Z,0.00
2023-03-20T00:32:00.699Z,0.00
2023-03-20T00:33:00.785Z,0.00
2023-03-20T00:34:00.728Z,0.00
2023-03-20T00:35:00.700Z,0.00
2023-03-20T00:36:00.674Z,0.00
2023-03-20T00:37:00.659Z,0.00
2023-03-20T00:38:00.640Z,0.00
2023-03-20T00:39:00.631Z,0.00
2023-03-20T00:40:00.748Z,0.00
2023-03-20T00:41:00.645Z,0.00
2023-03-20T00:42:00.728Z,0.00
2023-03-20T00:43:00.580Z,0.00
2023-03-20T00:44:00.571Z,0.00
2023-03-20T00:45:00.561Z,0.00
2023-03-20T00:46:00.583Z,0.00
2023-03-20T00:47:00.624Z,0.00
2023-03-20T00:48:00.544Z,0.00
2023-03-20T00:49:00.515Z,0.00
2023-03-20T00:50:00.531Z,0.00
2023-03-20T00:51:00.506Z,0.00
2023-03-20T00:52:00.485Z,0.00
2023-03-20T00:53:00.492Z,0.00
2023-03-20T00:54:00.615Z,0.00
2023-03-20T00:55:00.506Z,0.00
2023-03-20T00:56:00.484Z,0.00
2023-03-20T00:57:00.446Z,0.00
2023-03-20T00:58:00.449Z,0.00
2023-03-20T00:59:00.420Z,0.00
2023-03-20T01:00:00.421Z,0.00
2023-03-20T01:01:00.465Z,0.00
2023-03-20T01:02:00.608Z,0.00
2023-03-20T01:03:00.368Z,0.00
2023-03-20T01:04:00.394Z,0.00
2023-03-20T01:05:00.352Z,0.00
2023-03-20T01:06:00.429Z,0.00
2023-03-20T01:07:00.328Z,0.00
2023-03-20T01:08:00.321Z,0.00
2023-03-20T01:09:00.319Z,0.00
2023-03-20T01:10:00.322Z,0.00
2023-03-20T01:11:00.310Z,0.00
2023-03-20T01:12:00.289Z,0.00
2023-03-20T01:13:00.268Z,0.00
2023-03-20T01:14:00.254Z,0.00
2023-03-20T01:15:00.262Z,0.00
2023-03-20T01:16:00.349Z,0.00
2023-03-20T01:17:00.217Z,0.00
2023-03-20T01:18:00.211Z,0.00
2023-03-20T01:19:00.352Z,0.00
2023-03-20T01:20:00.204Z,0.00
2023-03-20T01:21:00.182Z,0.00
2023-03-20T01:22:00.182Z,0.00
2023-03-20T01:23:00.424Z,0.00
2023-03-20T01:24:00.165Z,0.00
2023-03-20T01:25:00.151Z,0.00
2023-03-20T01:26:00.139Z,0.00
2023-03-20T01:27:00.151Z,0.00
2023-03-20T01:28:00.113Z,0.00
2023-03-20T01:29:00.099Z,0.00
2023-03-20T01:30:00.153Z,0.00
2023-03-20T01:31:00.098Z,0.00
2023-03-20T01:32:00.130Z,0.00
2023-03-20T01:33:00.232Z,0.00
2023-03-20T01:34:00.094Z,0.00
2023-03-20T01:35:00.059Z,0.00
2023-03-20T01:36:00.574Z,0.00
2023-03-20T01:37:00.046Z,0.00
2023-03-20T01:38:00.016Z,0.00
2023-03-20T01:39:00.008Z,0.00
2023-03-20T01:39:59.989Z,0.00
2023-03-20T01:41:00.001Z,0.00
2023-03-20T01:41:59.963Z,0.00
2023-03-20T01:42:59.981Z,0.00
2023-03-20T01:43:59.946Z,0.00
2023-03-20T01:44:59.939Z,0.00
2023-03-20T01:46:00.027Z,0.00
2023-03-20T01:46:59.917Z,0.00
2023-03-20T01:47:59.906Z,0.00
2023-03-20T01:48:59.912Z,0.00
2023-03-20T01:49:59.894Z,0.00
2023-03-20T01:50:59.897Z,0.00
2023-03-20T01:52:00.014Z,0.00
2023-03-20T01:52:59.868Z,0.00
2023-03-20T01:53:59.846Z,0.00
2023-03-20T01:54:59.837Z,0.00
2023-03-20T01:55:59.825Z,0.00
2023-03-20T01:56:59.816Z,0.00
2023-03-20T01:57:59.831Z,0.00
2023-03-20T01:58:59.797Z,0.00
2023-03-20T01:59:59.788Z,0.00
2023-03-20T02:01:00.001Z,0.00
2023-03-20T02:01:59.787Z,0.00
2023-03-20T02:02:59.752Z,0.00
2023-03-20T02:03:59.745Z,0.00
2023-03-20T02:04:59.807Z,0.00
2023-03-20T02:05:59.722Z,0.00
2023-03-20T02:06:59.736Z,0.00
2023-03-20T02:07:59.725Z,0.00
2023-03-20T02:08:59.691Z,0.00
2023-03-20T02:09:59.701Z,0.00
2023-03-20T02:10:59.686Z,0.00
2023-03-20T02:11:59.754Z,0.00
2023-03-20T02:12:59.670Z,0.00
2023-03-20T02:13:59.652Z,0.00
2023-03-20T02:14:59.647Z,0.00
2023-03-20T02:15:59.625Z,0.00
2023-03-20T02:16:59.658Z,0.00
2023-03-20T02:17:59.663Z,0.00
2023-03-20T02:18:59.676Z,0.00
2023-03-20T02:19:59.667Z,0.00
2023-03-20T02:20:59.572Z,0.00
2023-03-20T02:21:59.567Z,0.00
2023-03-20T02:22:59.560Z,0.00
2023-03-20T02:23:59.556Z,0.00
2023-03-20T02:24:59.545Z,0.00
2023-03-20T02:25:59.534Z,0.00
2023-03-20T02:26:59.503Z,0.00
2023-03-20T02:27:59.492Z,0.00
2023-03-20T02:28:59.506Z,0.00
2023-03-20T02:29:59.473Z,0.00
2023-03-20T02:31:00.301Z,0.00
2023-03-20T02:31:59.585Z,0.00
2023-03-20T02:32:59.452Z,0.00
2023-03-20T02:33:59.438Z,0.00
2023-03-20T02:34:59.443Z,0.00
2023-03-20T02:35:59.430Z,0.00
2023-03-20T02:36:59.538Z,0.00
2023-03-20T02:37:59.395Z,0.00
2023-03-20T02:38:59.379Z,0.00
2023-03-20T02:39:59.526Z,0.00
2023-03-20T02:40:59.354Z,0.00
2023-03-20T02:41:59.356Z,0.00
2023-03-20T02:42:59.371Z,0.00
2023-03-20T02:43:59.374Z,0.00
2023-03-20T02:44:59.342Z,0.00
2023-03-20T02:45:59.366Z,0.00
2023-03-20T02:46:59.291Z,0.00
2023-03-20T02:47:59.357Z,0.00
2023-03-20T02:48:59.293Z,0.00
2023-03-20T02:49:59.260Z,0.00
2023-03-20T02:50:59.246Z,0.00
2023-03-20T02:51:59.241Z,0.00
2023-03-20T02:52:59.265Z,0.00
2023-03-20T02:53:59.217Z,0.00
2023-03-20T02:54:59.210Z,0.00
2023-03-20T02:55:59.238Z,0.00
2023-03-20T02:56:59.358Z,0.00
2023-03-20T02:57:59.211Z,0.00
2023-03-20T02:58:59.193Z,0.00
2023-03-20T02:59:59.174Z,0.00
2023-03-20T03:00:59.186Z,0.00
2023-03-20T03:01:59.144Z,0.00
2023-03-20T03:02:59.190Z,0.00
2023-03-20T03:03:59.195Z,0.00
2023-03-20T03:04:59.144Z,0.00
2023-03-20T03:05:59.135Z,0.00
2023-03-20T03:06:59.095Z,0.00
2023-03-20T03:07:59.078Z,0.00
2023-03-20T03:08:59.071Z,0.00
2023-03-20T03:09:59.053Z,0.00
2023-03-20T03:10:59.062Z,0.00
2023-03-20T03:11:59.060Z,0.00
2023-03-20T03:12:59.029Z,0.00
2023-03-20T03:13:59.021Z,0.00
2023-03-20T03:14:59.009Z,0.00
2023-03-20T03:15:59.030Z,0.00
2023-03-20T03:16:58.996Z,0.00
2023-03-20T03:17:58.987Z,0.00
2023-03-20T03:18:58.966Z,0.00
2023-03-20T03:19:58.948Z,0.00
2023-03-20T03:20:58.969Z,0.00
2023-03-20T03:21:58.979Z,0.00
2023-03-20T03:22:58.920Z,0.00
2023-03-20T03:23:58.930Z,0.00
2023-03-20T03:24:58.916Z,0.00
2023-03-20T03:25:58.938Z,0.00
2023-03-20T03:26:58.874Z,0.00
2023-03-20T03:27:58.878Z,0.00
2023-03-20T03:28:58.878Z,0.00
2023-03-20T03:29:58.843Z,0.00
2023-03-20T03:30:58.902Z,0.00
2023-03-20T03:31:58.820Z,0.00
2023-03-20T03:32:59.001Z,0.00
2023-03-20T03:33:58.872Z,0.00
2023-03-20T03:34:58.820Z,0.00
2023-03-20T03:35:58.799Z,0.00
2023-03-20T03:36:58.770Z,0.00
2023-03-20T03:37:58.852Z,0.00
2023-03-20T03:38:58.753Z,0.00
2023-03-20T03:39:58.760Z,0.00
2023-03-20T03:40:58.745Z,0.00
2023-03-20T03:41:58.732Z,0.00
2023-03-20T03:42:58.711Z,0.00
2023-03-20T03:43:58.704Z,0.00
2023-03-20T03:44:58.707Z,0.00
2023-03-20T03:45:58.693Z,0.00
2023-03-20T03:46:58.763Z,0.00
2023-03-20T03:47:58.663Z,0.00
2023-03-20T03:48:58.669Z,0.00
2023-03-20T03:49:58.638Z,0.00
2023-03-20T03:50:58.628Z,0.00
2023-03-20T03:51:58.640Z,0.00
2023-03-20T03:52:58.603Z,0.00
2023-03-20T03:53:58.599Z,0.00
2023-03-20T03:54:58.593Z,0.00
2023-03-20T03:55:58.651Z,0.00
2023-03-20T03:56:58.567Z,0.00
2023-03-20T03:57:58.586Z,0.00
2023-03-20T03:58:58.560Z,0.00
2023-03-20T03:59:58.537Z,0.00
2023-03-20T04:00:58.533Z,0.00
2023-03-20T04:01:58.561Z,0.00
2023-03-20T04:02:58.540Z,0.00
2023-03-20T04:03:58.514Z,0.00
2023-03-20T04:04:58.550Z,0.00
2023-03-20T04:05:58.484Z,0.00
2023-03-20T04:06:58.495Z,0.00
2023-03-20T04:07:58.472Z,0.00
2023-03-20T04:08:58.499Z,0.00
2023-03-20T04:09:58.441Z,0.00
2023-03-20T04:10:58.440Z,0.00
2023-03-20T04:11:58.429Z,0.00
2023-03-20T04:12:58.416Z,0.00
2023-03-20T04:13:58.421Z,0.00
2023-03-20T04:14:58.392Z,0.00
2023-03-20T04:15:58.430Z,0.00
2023-03-20T04:16:58.372Z,0.00
2023-03-20T04:17:58.364Z,0.00
2023-03-20T04:18:58.374Z,0.00
2023-03-20T04:19:58.412Z,0.00
2023-03-20T04:20:58.328Z,0.00
2023-03-20T04:21:58.321Z,0.00
2023-03-20T04:22:58.313Z,0.00
2023-03-20T04:23:58.318Z,0.00
2023-03-20T04:24:58.300Z,0.00
2023-03-20T04:25:58.295Z,0.00
2023-03-20T04:26:58.287Z,0.00
2023-03-20T04:27:58.263Z,0.00
2023-03-20T04:28:58.254Z,0.00
2023-03-20T04:29:58.267Z,0.00
2023-03-20T04:30:58.235Z,0.00
2023-03-20T04:31:58.229Z,0.00
2023-03-20T04:32:58.254Z,0.00
2023-03-20T04:33:58.225Z,0.00
2023-03-20T04:34:58.188Z,0.00
2023-03-20T04:35:58.262Z,0.00
2023-03-20T04:36:58.178Z,0.00
2023-03-20T04:37:58.162Z,0.00
2023-03-20T04:38:58.163Z,0.00
2023-03-20T04:39:58.163Z,0.00
2023-03-20T04:40:58.162Z,0.00
2023-03-20T04:41:58.121Z,0.00
2023-03-20T04:42:58.116Z,0.00
2023-03-20T04:43:58.102Z,0.00
2023-03-20T04:44:58.132Z,0.00
2023-03-20T04:45:58.151Z,0.00
2023-03-20T04:46:58.066Z,0.00
2023-03-20T04:47:58.086Z,0.00
2023-03-20T04:48:58.049Z,0.00
2023-03-20T04:49:58.061Z,0.00
2023-03-20T04:50:58.053Z,0.00
2023-03-20T04:51:58.056Z,0.00
2023-03-20T04:52:58.008Z,0.00
2023-03-20T04:53:58.008Z,0.00
2023-03-20T04:54:57.988Z,0.00
2023-03-20T04:56:00.603Z,0.00
2023-03-20T04:56:57.966Z,0.00
2023-03-20T04:57:57.948Z,0.00
2023-03-20T04:58:57.951Z,0.00
2023-03-20T04:59:57.930Z,0.00
2023-03-20T05:00:57.991Z,0.00
2023-03-20T05:01:57.925Z,0.00
2023-03-20T05:02:57.911Z,0.00
2023-03-20T05:03:57.925Z,0.00
2023-03-20T05:04:57.885Z,0.00
2023-03-20T05:05:57.873Z,0.00
2023-03-20T05:06:57.874Z,0.00
2023-03-20T05:07:57.843Z,0.00
2023-03-20T05:08:57.838Z,0.00
2023-03-20T05:09:57.826Z,0.00
2023-03-20T05:10:57.768Z,1.00
2023-03-20T05:11:57.813Z,0.00
2023-03-20T05:12:57.778Z,1.00
2023-03-20T05:13:57.786Z,0.00
2023-03-20T05:14:57.773Z,0.00
2023-03-20T05:15:57.764Z,0.00
2023-03-20T05:16:57.736Z,1.00
2023-03-20T05:17:57.697Z,2.00
2023-03-20T05:18:57.690Z,2.00
2023-03-20T05:19:57.667Z,3.00
2023-03-20T05:20:57.655Z,4.00
2023-03-20T05:21:57.639Z,6.00
2023-03-20T05:22:57.648Z,7.00
2023-03-20T05:23:57.648Z,8.00
2023-03-20T05:24:57.632Z,8.00
2023-03-20T05:25:57.650Z,8.00
2023-03-20T05:26:57.602Z,9.00
2023-03-20T05:27:57.579Z,9.00
2023-03-20T05:28:57.573Z,8.00
2023-03-20T05:29:57.578Z,10.00
2023-03-20T05:30:57.603Z,12.00
2023-03-20T05:31:57.568Z,12.00
2023-03-20T05:32:57.574Z,9.00
2023-03-20T05:33:57.554Z,10.00
2023-03-20T05:34:57.534Z,10.00
2023-03-20T05:35:57.540Z,14.00
2023-03-20T05:36:57.499Z,22.00
2023-03-20T05:37:57.478Z,10.00
2023-03-20T05:38:57.492Z,13.00
2023-03-20T05:39:57.471Z,21.00
2023-03-20T05:40:57.463Z,19.00
2023-03-20T05:41:57.440Z,28.00
2023-03-20T05:42:57.434Z,12.00
2023-03-20T05:43:57.420Z,18.00
2023-03-20T05:44:57.422Z,14.00
2023-03-20T05:45:57.434Z,27.00
2023-03-20T05:46:57.392Z,26.00
2023-03-20T05:47:57.386Z,32.00
2023-03-20T05:48:57.361Z,16.00
2023-03-20T05:49:57.364Z,20.00
2023-03-20T05:50:57.383Z,22.00
2023-03-20T05:51:57.355Z,22.00
2023-03-20T05:52:57.348Z,39.00
2023-03-20T05:53:57.323Z,27.00
2023-03-20T05:54:57.306Z,42.00
2023-03-20T05:55:57.292Z,15.00
2023-03-20T05:56:59.177Z,44.00
2023-03-20T05:57:57.343Z,12.00
2023-03-20T05:58:57.274Z,27.00
2023-03-20T05:59:57.263Z,19.00
2023-03-20T06:00:57.263Z,51.00
2023-03-20T06:01:57.235Z,50.00
2023-03-20T06:02:57.290Z,53.00
2023-03-20T06:03:57.268Z,26.00
2023-03-20T06:04:57.235Z,15.00
2023-03-20T06:05:57.196Z,46.00
2023-03-20T06:06:57.252Z,65.00
2023-03-20T06:07:57.179Z,72.00
2023-03-20T06:08:57.183Z,57.00
2023-03-20T06:09:57.231Z,63.00
2023-03-20T06:10:57.142Z,95.00
2023-03-20T06:11:57.142Z,31.00
2023-03-20T06:12:57.142Z,66.00
2023-03-20T06:13:57.136Z,31.00
2023-03-20T06:14:57.137Z,72.00
2023-03-20T06:15:57.136Z,77.00
2023-03-20T06:16:57.120Z,98.00
2023-03-20T06:17:57.075Z,26.00
2023-03-20T06:18:57.082Z,77.00
2023-03-20T06:19:57.061Z,41.00
2023-03-20T06:20:57.072Z,51.00
2023-03-20T06:21:57.040Z,31.00
2023-03-20T06:22:57.031Z,55.00
2023-03-20T06:23:57.021Z,28.00
2023-03-20T06:24:57.076Z,43.00
2023-03-20T06:25:57.125Z,56.00
2023-03-20T06:26:57.005Z,77.00
2023-03-20T06:27:56.980Z,77.00
2023-03-20T06:28:56.980Z,39.00
2023-03-20T06:29:56.953Z,49.00
2023-03-20T06:30:57.068Z,76.00
2023-03-20T06:31:56.953Z,69.00
2023-03-20T06:32:56.991Z,85.00
2023-03-20T06:33:56.924Z,57.00
2023-03-20T06:34:56.901Z,89.00
2023-03-20T06:35:56.934Z,97.00
2023-03-20T06:36:56.881Z,65.00
2023-03-20T06:37:56.872Z,107.00
2023-03-20T06:38:56.895Z,64.00
2023-03-20T06:39:56.860Z,86.00
2023-03-20T06:40:56.893Z,80.00
2023-03-20T06:41:56.890Z,72.00
2023-03-20T06:42:56.819Z,72.00
2023-03-20T06:43:56.833Z,54.00
2023-03-20T06:44:56.804Z,108.00
2023-03-20T06:45:56.793Z,73.00
2023-03-20T06:46:56.956Z,62.00
2023-03-20T06:47:56.782Z,57.00
2023-03-20T06:48:56.792Z,68.00
2023-03-20T06:49:56.750Z,149.00
2023-03-20T06:50:56.747Z,54.00
2023-03-20T06:51:56.730Z,153.00
2023-03-20T06:52:56.717Z,152.00
2023-03-20T06:53:56.707Z,220.00
2023-03-20T06:54:56.712Z,179.00
2023-03-20T06:55:56.694Z,155.00
2023-03-20T06:56:56.687Z,295.00
2023-03-20T06:57:56.676Z,118.00
2023-03-20T06:58:56.664Z,133.00
2023-03-20T06:59:56.664Z,193.00
2023-03-20T07:00:56.645Z,276.00
2023-03-20T07:01:56.695Z,255.00
2023-03-20T07:02:56.612Z,246.00
2023-03-20T07:03:56.608Z,432.00
2023-03-20T07:04:56.677Z,184.00
2023-03-20T07:05:56.585Z,283.00
2023-03-20T07:06:56.581Z,89.00
2023-03-20T07:07:56.586Z,347.00
2023-03-20T07:08:56.575Z,252.00
2023-03-20T07:09:56.598Z,252.00
2023-03-20T07:10:56.667Z,113.00
2023-03-20T07:11:56.540Z,74.00
2023-03-20T07:12:56.522Z,419.00
2023-03-20T07:13:56.551Z,85.00
2023-03-20T07:14:56.504Z,458.00
2023-03-20T07:16:04.149Z,105.00
2023-03-20T07:16:56.572Z,391.00
2023-03-20T07:17:56.474Z,169.00
2023-03-20T07:18:56.467Z,159.00
2023-03-20T07:19:56.454Z,422.00
2023-03-20T07:20:56.456Z,268.00
2023-03-20T07:21:56.432Z,293.00
2023-03-20T07:22:56.439Z,257.00
2023-03-20T07:23:56.414Z,406.00
2023-03-20T07:24:56.397Z,273.00
2023-03-20T07:25:56.396Z,255.00
2023-03-20T07:26:56.380Z,478.00
2023-03-20T07:27:56.368Z,533.00
2023-03-20T07:28:56.392Z,290.00
2023-03-20T07:29:56.355Z,395.00
2023-03-20T07:30:56.343Z,379.00
2023-03-20T07:31:56.359Z,227.00
2023-03-20T07:32:56.458Z,368.00
2023-03-20T07:33:56.309Z,203.00
2023-03-20T07:34:56.312Z,160.00
2023-03-20T07:35:56.376Z,353.00
2023-03-20T07:36:56.281Z,352.00
2023-03-20T07:37:58.109Z,399.00
2023-03-20T07:38:56.262Z,501.00
2023-03-20T07:39:56.244Z,588.00
2023-03-20T07:40:56.244Z,383.00
2023-03-20T07:41:56.231Z,268.00
2023-03-20T07:42:56.216Z,444.00
2023-03-20T07:43:56.223Z,749.00
2023-03-20T07:44:56.200Z,419.00
2023-03-20T07:45:56.279Z,562.00
2023-03-20T07:46:56.167Z,413.00
2023-03-20T07:47:56.180Z,452.00
2023-03-20T07:48:56.162Z,470.00
2023-03-20T07:49:56.182Z,572.00
2023-03-20T07:50:56.138Z,382.00
2023-03-20T07:51:56.122Z,341.00
2023-03-20T07:52:56.115Z,327.00
2023-03-20T07:53:56.094Z,403.00
2023-03-20T07:54:56.138Z,584.00
2023-03-20T07:55:56.078Z,648.00
2023-03-20T07:56:56.073Z,686.00
2023-03-20T07:57:56.060Z,487.00
2023-03-20T07:58:56.048Z,713.00
2023-03-20T07:59:56.030Z,491.00
2023-03-20T08:00:56.208Z,820.00
2023-03-20T08:01:56.015Z,536.00
2023-03-20T08:02:56.075Z,699.00
2023-03-20T08:03:56.216Z,793.00
2023-03-20T08:04:55.984Z,674.00
2023-03-20T08:05:56.004Z,954.00
2023-03-20T08:06:55.973Z,862.00
2023-03-20T08:07:55.949Z,920.00
2023-03-20T08:08:55.941Z,849.00
2023-03-20T08:09:55.942Z,588.00
2023-03-20T08:10:55.929Z,874.00
2023-03-20T08:11:55.925Z,844.00
2023-03-20T08:12:55.902Z,629.00
2023-03-20T08:13:55.911Z,632.00
2023-03-20T08:14:55.889Z,764.00
2023-03-20T08:15:55.882Z,557.00
2023-03-20T08:17:12.391Z,641.00
2023-03-20T08:17:55.860Z,317.00
2023-03-20T08:18:55.847Z,724.00
2023-03-20T08:19:55.840Z,527.00
2023-03-20T08:20:55.828Z,282.00
2023-03-20T08:21:55.852Z,730.00
2023-03-20T08:22:55.830Z,333.00
2023-03-20T08:23:55.791Z,775.00
2023-03-20T08:24:55.789Z,711.00
2023-03-20T08:25:55.782Z,474.00
2023-03-20T08:26:55.773Z,935.00
2023-03-20T08:27:55.770Z,509.00
2023-03-20T08:28:55.764Z,872.00
2023-03-20T08:29:55.753Z,899.00
2023-03-20T08:30:55.763Z,680.00
2023-03-20T08:31:55.725Z,634.00
2023-03-20T08:32:55.763Z,664.00
2023-03-20T08:33:55.712Z,731.00
2023-03-20T08:34:55.684Z,571.00
2023-03-20T08:35:55.714Z,509.00
2023-03-20T08:36:55.680Z,496.00
2023-03-20T08:37:55.650Z,336.00
2023-03-20T08:38:55.688Z,400.00
2023-03-20T08:39:55.657Z,397.00
2023-03-20T08:40:55.625Z,149.00
2023-03-20T08:41:55.612Z,449.00
2023-03-20T08:42:55.603Z,360.00
2023-03-20T08:43:55.586Z,154.00
2023-03-20T08:44:55.607Z,406.00
2023-03-20T08:45:55.628Z,407.00
2023-03-20T08:46:55.560Z,700.00
2023-03-20T08:47:55.550Z,700.00
2023-03-20T08:48:55.549Z,595.00
2023-03-20T08:49:55.530Z,349.00
2023-03-20T08:50:55.511Z,533.00
2023-03-20T08:51:55.690Z,1110.00
2023-03-20T08:52:55.500Z,528.00
2023-03-20T08:53:55.486Z,232.00
2023-03-20T08:54:55.484Z,1010.00
2023-03-20T08:55:55.471Z,625.00
2023-03-20T08:56:55.486Z,697.00
2023-03-20T08:57:55.442Z,842.00
2023-03-20T08:58:56.133Z,1019.00
2023-03-20T08:59:55.428Z,1201.00
2023-03-20T09:00:55.418Z,1140.00
2023-03-20T09:01:55.438Z,989.00
2023-03-20T09:02:55.466Z,880.00
2023-03-20T09:03:55.397Z,1276.00
2023-03-20T09:04:55.384Z,938.00
2023-03-20T09:05:55.394Z,1055.00
2023-03-20T09:06:55.354Z,988.00
2023-03-20T09:07:55.361Z,1366.00
2023-03-20T09:08:55.327Z,713.00
2023-03-20T09:09:55.338Z,1003.00
2023-03-20T09:10:55.308Z,953.00
2023-03-20T09:11:55.308Z,995.00
2023-03-20T09:12:55.280Z,1396.00
2023-03-20T09:13:55.295Z,1253.00
2023-03-20T09:14:55.282Z,1143.00
2023-03-20T09:15:55.316Z,1031.00
2023-03-20T09:16:55.247Z,1179.00
2023-03-20T09:17:55.230Z,1020.00
2023-03-20T09:18:55.230Z,1044.00
2023-03-20T09:19:55.227Z,1165.00
2023-03-20T09:20:55.204Z,1294.00
2023-03-20T09:21:55.212Z,561.00
2023-03-20T09:22:55.181Z,1059.00
2023-03-20T09:23:55.200Z,1127.00
2023-03-20T09:24:55.221Z,1207.00
2023-03-20T09:25:55.159Z,1227.00
2023-03-20T09:26:55.138Z,890.00
2023-03-20T09:27:55.159Z,809.00
2023-03-20T09:28:55.132Z,980.00
2023-03-20T09:29:55.144Z,1081.00
2023-03-20T09:30:55.141Z,924.00
2023-03-20T09:31:55.106Z,1261.00
2023-03-20T09:32:55.154Z,1284.00
2023-03-20T09:33:55.105Z,950.00
2023-03-20T09:34:55.056Z,875.00
2023-03-20T09:35:55.147Z,259.00
2023-03-20T09:36:55.050Z,1067.00
2023-03-20T09:37:55.030Z,1149.00
2023-03-20T09:38:55.022Z,978.00
2023-03-20T09:39:55.003Z,289.00
2023-03-20T09:40:55.004Z,1442.00
2023-03-20T09:41:57.379Z,979.00
2023-03-20T09:42:54.991Z,430.00
2023-03-20T09:43:54.977Z,550.00
2023-03-20T09:44:54.957Z,779.00
2023-03-20T09:45:54.946Z,660.00
2023-03-20T09:47:00.374Z,412.00
2023-03-20T09:47:54.940Z,211.00
2023-03-20T09:48:54.948Z,561.00
2023-03-20T09:49:54.905Z,1080.00
2023-03-20T09:50:54.895Z,1012.00
2023-03-20T09:51:54.880Z,688.00
2023-03-20T09:52:54.907Z,956.00
2023-03-20T09:53:56.401Z,1192.00
2023-03-20T09:54:55.121Z,1242.00
2023-03-20T09:55:54.846Z,790.00
2023-03-20T09:56:54.826Z,698.00
2023-03-20T09:57:54.854Z,788.00
2023-03-20T09:58:54.822Z,977.00
2023-03-20T09:59:54.788Z,1233.00
2023-03-20T10:00:54.788Z,733.00
2023-03-20T10:01:54.805Z,902.00
2023-03-20T10:02:54.774Z,676.00
2023-03-20T10:03:54.779Z,296.00
2023-03-20T10:04:54.794Z,430.00
2023-03-20T10:05:54.758Z,1238.00
2023-03-20T10:06:54.717Z,672.00
2023-03-20T10:07:54.757Z,1254.00
2023-03-20T10:08:54.701Z,958.00
2023-03-20T10:09:54.696Z,449.00
2023-03-20T10:10:54.702Z,1341.00
2023-03-20T10:11:54.664Z,1129.00
2023-03-20T10:12:54.686Z,1017.00
2023-03-20T10:13:54.654Z,1105.00
2023-03-20T10:14:54.631Z,1028.00
2023-03-20T10:15:54.910Z,975.00
2023-03-20T10:16:54.615Z,706.00
2023-03-20T10:17:54.602Z,1001.00
2023-03-20T10:18:54.616Z,363.00
2023-03-20T10:19:54.606Z,543.00
2023-03-20T10:20:54.566Z,980.00
2023-03-20T10:21:54.589Z,998.00
2023-03-20T10:22:54.572Z,351.00
2023-03-20T10:23:54.540Z,718.00
2023-03-20T10:24:54.546Z,655.00
2023-03-20T10:25:54.530Z,1078.00
2023-03-20T10:26:54.510Z,1113.00
2023-03-20T10:27:55.325Z,1047.00
2023-03-20T10:28:54.509Z,630.00
2023-03-20T10:29:54.497Z,866.00
2023-03-20T10:30:54.473Z,1078.00
2023-03-20T10:31:54.580Z,1292.00
2023-03-20T10:32:54.495Z,1288.00
2023-03-20T10:33:54.459Z,1155.00
2023-03-20T10:34:54.436Z,1311.00
2023-03-20T10:35:54.487Z,1471.00
2023-03-20T10:36:54.418Z,1304.00
2023-03-20T10:37:54.387Z,1183.00
2023-03-20T10:38:54.399Z,1538.00
2023-03-20T10:39:54.377Z,1052.00
2023-03-20T10:40:54.375Z,1465.00
2023-03-20T10:41:54.351Z,1057.00
2023-03-20T10:42:54.353Z,742.00
2023-03-20T10:43:54.335Z,504.00
2023-03-20T10:44:54.310Z,1149.00
2023-03-20T10:45:54.306Z,1609.00
2023-03-20T10:46:54.332Z,1414.00
2023-03-20T10:47:54.332Z,674.00
2023-03-20T10:48:54.300Z,337.00
2023-03-20T10:49:54.259Z,1271.00
2023-03-20T10:50:54.248Z,1812.00
2023-03-20T10:51:54.252Z,574.00
2023-03-20T10:52:54.255Z,764.00
2023-03-20T10:53:54.226Z,1275.00
2023-03-20T10:54:54.204Z,1304.00
2023-03-20T10:55:54.197Z,864.00
2023-03-20T10:56:54.179Z,1122.00
2023-03-20T10:57:54.184Z,1485.00
2023-03-20T10:58:54.178Z,1569.00
2023-03-20T10:59:54.174Z,1254.00
2023-03-20T11:00:54.180Z,1325.00
2023-03-20T11:01:54.158Z,981.00
2023-03-20T11:02:54.124Z,996.00
2023-03-20T11:03:54.183Z,1577.00
2023-03-20T11:04:54.122Z,1352.00
2023-03-20T11:06:08.644Z,1484.00
2023-03-20T11:06:54.081Z,680.00
2023-03-20T11:07:54.073Z,1237.00
2023-03-20T11:08:54.056Z,1385.00
2023-03-20T11:09:54.067Z,1514.00
2023-03-20T11:10:54.067Z,1428.00
2023-03-20T11:11:54.028Z,1418.00
2023-03-20T11:12:54.088Z,928.00
2023-03-20T11:13:53.999Z,1295.00
2023-03-20T11:14:54.004Z,1136.00
2023-03-20T11:15:53.977Z,1149.00
2023-03-20T11:16:54.131Z,1245.00
2023-03-20T11:17:53.957Z,1384.00
2023-03-20T11:18:53.987Z,1000.00
2023-03-20T11:19:53.934Z,1312.00
2023-03-20T11:20:53.948Z,1362.00
2023-03-20T11:21:53.913Z,1323.00
2023-03-20T11:22:53.945Z,1383.00
2023-03-20T11:23:53.896Z,1323.00
2023-03-20T11:24:53.916Z,1356.00
2023-03-20T11:25:53.876Z,1368.00
2023-03-20T11:26:53.866Z,1443.00
2023-03-20T11:27:53.860Z,1474.00
2023-03-20T11:28:53.845Z,1573.00
2023-03-20T11:29:53.939Z,1444.00
2023-03-20T11:31:04.418Z,1437.00
2023-03-20T11:31:53.879Z,1443.00
2023-03-20T11:32:53.943Z,1438.00
2023-03-20T11:33:53.808Z,1253.00
2023-03-20T11:34:53.779Z,1364.00
2023-03-20T11:35:53.789Z,1390.00
2023-03-20T11:37:08.910Z,1500.00
2023-03-20T11:37:53.761Z,1565.00
2023-03-20T11:38:53.734Z,1559.00
2023-03-20T11:39:53.736Z,1360.00
2023-03-20T11:40:53.718Z,939.00
2023-03-20T11:41:53.698Z,1083.00
2023-03-20T11:42:53.712Z,996.00
2023-03-20T11:43:53.694Z,738.00
2023-03-20T11:44:53.701Z,1203.00
2023-03-20T11:45:53.670Z,947.00
2023-03-20T11:46:53.640Z,951.00
2023-03-20T11:47:53.641Z,970.00
2023-03-20T11:48:53.625Z,1071.00
2023-03-20T11:49:53.604Z,1008.00
2023-03-20T11:50:53.615Z,1185.00
2023-03-20T11:51:53.583Z,1431.00
2023-03-20T11:52:53.583Z,1022.00
2023-03-20T11:53:53.559Z,1311.00
2023-03-20T11:54:53.579Z,1508.00
2023-03-20T11:55:53.546Z,1343.00
2023-03-20T11:56:53.534Z,1416.00
2023-03-20T11:57:53.520Z,1467.00
2023-03-20T11:58:53.513Z,1486.00
2023-03-20T11:59:53.530Z,1380.00
2023-03-20T12:00:53.499Z,1438.00
2023-03-20T12:01:53.484Z,1400.00
2023-03-20T12:02:53.569Z,1408.00
2023-03-20T12:03:53.495Z,1479.00
2023-03-20T12:04:53.451Z,1502.00
2023-03-20T12:05:53.462Z,1561.00
2023-03-20T12:06:53.443Z,1537.00
2023-03-20T12:07:53.417Z,1431.00
2023-03-20T12:08:53.422Z,1437.00
2023-03-20T12:09:53.424Z,1331.00
2023-03-20T12:10:53.386Z,1498.00
2023-03-20T12:11:53.388Z,1513.00
2023-03-20T12:12:53.366Z,1431.00
2023-03-20T12:13:53.361Z,1408.00
2023-03-20T12:14:53.359Z,1489.00
2023-03-20T12:15:53.374Z,1433.00
2023-03-20T12:16:53.345Z,1208.00
2023-03-20T12:17:53.330Z,1425.00
2023-03-20T12:18:53.302Z,1226.00
2023-03-20T12:19:53.308Z,1308.00
2023-03-20T12:20:53.274Z,860.00
2023-03-20T12:21:53.275Z,1144.00
2023-03-20T12:22:53.267Z,1116.00
2023-03-20T12:23:53.247Z,1346.00
2023-03-20T12:24:53.265Z,1205.00
2023-03-20T12:25:53.220Z,1177.00
2023-03-20T12:26:53.241Z,1230.00
2023-03-20T12:27:53.213Z,1267.00
2023-03-20T12:28:53.194Z,1276.00
2023-03-20T12:29:53.190Z,1322.00
2023-03-20T12:30:53.207Z,1129.00
2023-03-20T12:31:53.155Z,1298.00
2023-03-20T12:32:53.227Z,1116.00
2023-03-20T12:33:53.158Z,1186.00
2023-03-20T12:34:53.136Z,1269.00
2023-03-20T12:35:53.214Z,1281.00
2023-03-20T12:36:53.157Z,1271.00
2023-03-20T12:37:53.122Z,1305.00
2023-03-20T12:38:53.100Z,1400.00
2023-03-20T12:39:53.073Z,1275.00
2023-03-20T12:40:53.061Z,1338.00
2023-03-20T12:41:53.077Z,1339.00
2023-03-20T12:42:53.051Z,1598.00
2023-03-20T12:43:53.038Z,1428.00
2023-03-20T12:44:53.024Z,1350.00
2023-03-20T12:45:53.099Z,1223.00